sensor_id;sensor_type;location;lat;lon;timestamp;P1;durP1;ratioP1;P2;durP2;ratioP2
59207;SDS011;44977;53.132;6.408;2024-01-25T00:02:19;30.05;;;7.88;;
59207;SDS011;44977;53.132;6.408;2024-01-25T00:07:19;28.33;;;8.07;;
59207;SDS011;44977;53.132;6.408;2024-01-25T00:12:20;28.80;;;7.55;;
59207;SDS011;44977;53.132;6.408;2024-01-25T00:17:21;30.88;;;8.27;;
59207;SDS011;44977;53.132;6.408;2024-01-25T00:22:21;33.15;;;8.30;;
59207;SDS011;44977;53.132;6.408;2024-01-25T00:27:22;33.33;;;7.63;;
59207;SDS011;44977;53.132;6.408;2024-01-25T00:32:23;32.67;;;7.70;;
59207;SDS011;44977;53.132;6.408;2024-01-25T00:37:23;31.80;;;7.22;;
59207;SDS011;44977;53.132;6.408;2024-01-25T00:42:24;28.25;;;7.25;;
59207;SDS011;44977;53.132;6.408;2024-01-25T00:47:26;34.03;;;8.25;;
59207;SDS011;44977;53.132;6.408;2024-01-25T00:52:27;32.95;;;7.32;;
59207;SDS011;44977;53.132;6.408;2024-01-25T00:57:28;29.60;;;7.60;;
59207;SDS011;44977;53.132;6.408;2024-01-25T01:02:29;30.88;;;7.65;;
59207;SDS011;44977;53.132;6.408;2024-01-25T01:07:33;32.60;;;7.70;;
59207;SDS011;44977;53.132;6.408;2024-01-25T01:12:34;29.77;;;7.63;;
59207;SDS011;44977;53.132;6.408;2024-01-25T01:17:35;34.47;;;7.95;;
59207;SDS011;44977;53.132;6.408;2024-01-25T01:22:36;29.88;;;7.63;;
59207;SDS011;44977;53.132;6.408;2024-01-25T01:27:37;33.47;;;7.53;;
59207;SDS011;44977;53.132;6.408;2024-01-25T01:32:37;26.27;;;6.85;;
59207;SDS011;44977;53.132;6.408;2024-01-25T01:37:38;28.33;;;7.55;;
59207;SDS011;44977;53.132;6.408;2024-01-25T01:42:39;31.98;;;7.50;;
59207;SDS011;44977;53.132;6.408;2024-01-25T01:47:40;34.78;;;8.27;;
59207;SDS011;44977;53.132;6.408;2024-01-25T01:52:41;28.98;;;6.82;;
59207;SDS011;44977;53.132;6.408;2024-01-25T01:57:42;32.28;;;7.68;;
59207;SDS011;44977;53.132;6.408;2024-01-25T02:02:44;30.85;;;8.25;;
59207;SDS011;44977;53.132;6.408;2024-01-25T02:07:45;32.15;;;8.38;;
59207;SDS011;44977;53.132;6.408;2024-01-25T02:12:45;29.80;;;8.02;;
59207;SDS011;44977;53.132;6.408;2024-01-25T02:17:46;33.75;;;7.43;;
59207;SDS011;44977;53.132;6.408;2024-01-25T02:22:47;34.22;;;8.35;;
59207;SDS011;44977;53.132;6.408;2024-01-25T02:27:48;27.55;;;7.63;;
59207;SDS011;44977;53.132;6.408;2024-01-25T02:32:49;36.13;;;8.80;;
59207;SDS011;44977;53.132;6.408;2024-01-25T02:37:50;34.55;;;8.75;;
59207;SDS011;44977;53.132;6.408;2024-01-25T02:42:50;32.47;;;7.88;;
59207;SDS011;44977;53.132;6.408;2024-01-25T02:47:51;33.08;;;8.02;;
59207;SDS011;44977;53.132;6.408;2024-01-25T02:52:52;31.08;;;7.72;;
59207;SDS011;44977;53.132;6.408;2024-01-25T02:57:52;34.33;;;8.65;;
59207;SDS011;44977;53.132;6.408;2024-01-25T03:02:53;35.95;;;8.68;;
59207;SDS011;44977;53.132;6.408;2024-01-25T03:07:54;34.67;;;8.35;;
59207;SDS011;44977;53.132;6.408;2024-01-25T03:12:55;37.47;;;9.20;;
59207;SDS011;44977;53.132;6.408;2024-01-25T03:17:55;35.92;;;8.05;;
59207;SDS011;44977;53.132;6.408;2024-01-25T03:22:56;39.40;;;8.73;;
59207;SDS011;44977;53.132;6.408;2024-01-25T03:27:57;33.67;;;8.68;;
59207;SDS011;44977;53.132;6.408;2024-01-25T03:32:57;37.70;;;8.80;;
59207;SDS011;44977;53.132;6.408;2024-01-25T03:37:58;33.38;;;8.70;;
59207;SDS011;44977;53.132;6.408;2024-01-25T03:42:59;33.75;;;7.93;;
59207;SDS011;44977;53.132;6.408;2024-01-25T03:47:59;29.13;;;8.25;;
59207;SDS011;44977;53.132;6.408;2024-01-25T03:53:00;35.70;;;8.85;;
59207;SDS011;44977;53.132;6.408;2024-01-25T03:58:01;36.80;;;8.65;;
59207;SDS011;44977;53.132;6.408;2024-01-25T04:03:01;37.75;;;8.98;;
59207;SDS011;44977;53.132;6.408;2024-01-25T04:08:03;32.30;;;7.93;;
59207;SDS011;44977;53.132;6.408;2024-01-25T04:13:04;34.92;;;7.78;;
59207;SDS011;44977;53.132;6.408;2024-01-25T04:18:06;32.53;;;9.02;;
59207;SDS011;44977;53.132;6.408;2024-01-25T04:23:07;37.28;;;8.68;;
59207;SDS011;44977;53.132;6.408;2024-01-25T04:28:07;33.97;;;8.57;;
59207;SDS011;44977;53.132;6.408;2024-01-25T04:33:08;39.28;;;9.30;;
59207;SDS011;44977;53.132;6.408;2024-01-25T04:38:09;34.03;;;8.63;;
59207;SDS011;44977;53.132;6.408;2024-01-25T04:43:09;39.10;;;8.77;;
59207;SDS011;44977;53.132;6.408;2024-01-25T04:48:11;37.75;;;9.30;;
59207;SDS011;44977;53.132;6.408;2024-01-25T04:53:12;32.25;;;8.05;;
59207;SDS011;44977;53.132;6.408;2024-01-25T04:58:13;41.33;;;9.27;;
59207;SDS011;44977;53.132;6.408;2024-01-25T05:03:13;29.42;;;7.85;;
59207;SDS011;44977;53.132;6.408;2024-01-25T05:08:14;33.53;;;8.18;;
59207;SDS011;44977;53.132;6.408;2024-01-25T05:13:15;34.05;;;8.43;;
59207;SDS011;44977;53.132;6.408;2024-01-25T05:18:15;35.78;;;8.55;;
59207;SDS011;44977;53.132;6.408;2024-01-25T05:23:16;40.63;;;8.88;;
59207;SDS011;44977;53.132;6.408;2024-01-25T05:28:17;35.92;;;8.45;;
59207;SDS011;44977;53.132;6.408;2024-01-25T05:33:17;38.40;;;9.05;;
59207;SDS011;44977;53.132;6.408;2024-01-25T05:38:18;33.30;;;8.77;;
59207;SDS011;44977;53.132;6.408;2024-01-25T05:43:19;32.45;;;8.20;;
59207;SDS011;44977;53.132;6.408;2024-01-25T05:48:19;37.90;;;9.50;;
59207;SDS011;44977;53.132;6.408;2024-01-25T05:53:20;39.92;;;9.38;;
59207;SDS011;44977;53.132;6.408;2024-01-25T05:58:21;35.78;;;8.43;;
59207;SDS011;44977;53.132;6.408;2024-01-25T06:03:22;38.80;;;9.73;;
59207;SDS011;44977;53.132;6.408;2024-01-25T06:08:22;39.10;;;8.85;;
59207;SDS011;44977;53.132;6.408;2024-01-25T06:13:23;35.25;;;8.43;;
59207;SDS011;44977;53.132;6.408;2024-01-25T06:18:24;37.00;;;9.68;;
59207;SDS011;44977;53.132;6.408;2024-01-25T06:23:25;41.08;;;9.10;;
59207;SDS011;44977;53.132;6.408;2024-01-25T06:28:26;34.30;;;9.30;;
59207;SDS011;44977;53.132;6.408;2024-01-25T06:33:26;38.00;;;9.07;;
59207;SDS011;44977;53.132;6.408;2024-01-25T06:38:27;43.13;;;9.38;;
59207;SDS011;44977;53.132;6.408;2024-01-25T06:43:28;36.13;;;8.95;;
59207;SDS011;44977;53.132;6.408;2024-01-25T06:48:28;38.42;;;10.15;;
59207;SDS011;44977;53.132;6.408;2024-01-25T06:53:29;34.10;;;9.15;;
59207;SDS011;44977;53.132;6.408;2024-01-25T06:58:30;42.63;;;9.13;;
59207;SDS011;44977;53.132;6.408;2024-01-25T07:03:30;32.88;;;9.25;;
59207;SDS011;44977;53.132;6.408;2024-01-25T07:08:32;37.28;;;8.93;;
59207;SDS011;44977;53.132;6.408;2024-01-25T07:13:35;35.50;;;8.98;;
59207;SDS011;44977;53.132;6.408;2024-01-25T07:18:35;42.13;;;10.68;;
59207;SDS011;44977;53.132;6.408;2024-01-25T07:23:36;38.40;;;10.25;;
59207;SDS011;44977;53.132;6.408;2024-01-25T07:28:37;34.10;;;9.05;;
59207;SDS011;44977;53.132;6.408;2024-01-25T07:33:37;43.17;;;10.02;;
59207;SDS011;44977;53.132;6.408;2024-01-25T07:38:38;43.65;;;10.40;;
59207;SDS011;44977;53.132;6.408;2024-01-25T07:43:39;35.38;;;8.82;;
59207;SDS011;44977;53.132;6.408;2024-01-25T07:48:40;38.22;;;9.27;;
59207;SDS011;44977;53.132;6.408;2024-01-25T07:53:41;40.63;;;9.35;;
59207;SDS011;44977;53.132;6.408;2024-01-25T07:58:42;36.22;;;9.77;;
59207;SDS011;44977;53.132;6.408;2024-01-25T08:03:42;43.83;;;9.48;;
59207;SDS011;44977;53.132;6.408;2024-01-25T08:08:43;38.17;;;9.45;;
59207;SDS011;44977;53.132;6.408;2024-01-25T08:13:44;41.05;;;9.20;;
59207;SDS011;44977;53.132;6.408;2024-01-25T08:18:45;40.97;;;10.13;;
59207;SDS011;44977;53.132;6.408;2024-01-25T08:23:46;43.40;;;9.88;;
59207;SDS011;44977;53.132;6.408;2024-01-25T08:28:47;46.53;;;10.38;;
59207;SDS011;44977;53.132;6.408;2024-01-25T08:33:48;42.03;;;9.32;;
59207;SDS011;44977;53.132;6.408;2024-01-25T08:38:49;45.88;;;10.77;;
59207;SDS011;44977;53.132;6.408;2024-01-25T08:43:50;40.72;;;10.15;;
59207;SDS011;44977;53.132;6.408;2024-01-25T08:48:51;43.28;;;10.07;;
59207;SDS011;44977;53.132;6.408;2024-01-25T08:53:52;36.35;;;10.23;;
59207;SDS011;44977;53.132;6.408;2024-01-25T08:58:52;36.95;;;9.73;;
59207;SDS011;44977;53.132;6.408;2024-01-25T09:03:53;39.53;;;9.75;;
59207;SDS011;44977;53.132;6.408;2024-01-25T09:08:54;46.80;;;10.23;;
59207;SDS011;44977;53.132;6.408;2024-01-25T09:13:54;38.88;;;9.80;;
59207;SDS011;44977;53.132;6.408;2024-01-25T09:18:55;34.75;;;9.75;;
59207;SDS011;44977;53.132;6.408;2024-01-25T09:23:56;35.65;;;9.98;;
59207;SDS011;44977;53.132;6.408;2024-01-25T09:28:57;46.97;;;11.63;;
59207;SDS011;44977;53.132;6.408;2024-01-25T09:33:57;50.42;;;10.75;;
59207;SDS011;44977;53.132;6.408;2024-01-25T09:38:58;40.40;;;10.05;;
59207;SDS011;44977;53.132;6.408;2024-01-25T09:43:59;34.38;;;9.18;;
59207;SDS011;44977;53.132;6.408;2024-01-25T09:48:59;38.72;;;9.45;;
59207;SDS011;44977;53.132;6.408;2024-01-25T09:54:01;37.72;;;11.07;;
59207;SDS011;44977;53.132;6.408;2024-01-25T09:59:03;37.40;;;9.43;;
59207;SDS011;44977;53.132;6.408;2024-01-25T10:04:06;38.35;;;10.55;;
59207;SDS011;44977;53.132;6.408;2024-01-25T10:09:08;37.40;;;9.50;;
59207;SDS011;44977;53.132;6.408;2024-01-25T10:14:09;43.58;;;10.63;;
59207;SDS011;44977;53.132;6.408;2024-01-25T10:19:10;41.10;;;10.45;;
59207;SDS011;44977;53.132;6.408;2024-01-25T10:24:12;41.33;;;10.57;;
59207;SDS011;44977;53.132;6.408;2024-01-25T10:29:14;33.70;;;9.77;;
59207;SDS011;44977;53.132;6.408;2024-01-25T10:34:14;34.53;;;10.70;;
59207;SDS011;44977;53.132;6.408;2024-01-25T10:39:17;44.97;;;11.30;;
59207;SDS011;44977;53.132;6.408;2024-01-25T10:44:19;35.65;;;10.52;;
59207;SDS011;44977;53.132;6.408;2024-01-25T10:49:20;39.80;;;11.80;;
59207;SDS011;44977;53.132;6.408;2024-01-25T10:54:21;32.60;;;9.75;;
59207;SDS011;44977;53.132;6.408;2024-01-25T10:59:22;41.35;;;10.32;;
59207;SDS011;44977;53.132;6.408;2024-01-25T11:04:25;28.98;;;9.68;;
59207;SDS011;44977;53.132;6.408;2024-01-25T11:09:26;41.22;;;10.25;;
59207;SDS011;44977;53.132;6.408;2024-01-25T11:14:27;38.10;;;10.75;;
59207;SDS011;44977;53.132;6.408;2024-01-25T11:19:28;39.55;;;10.13;;
59207;SDS011;44977;53.132;6.408;2024-01-25T11:24:29;34.05;;;10.60;;
59207;SDS011;44977;53.132;6.408;2024-01-25T11:29:30;36.63;;;10.50;;
59207;SDS011;44977;53.132;6.408;2024-01-25T11:34:31;37.63;;;11.43;;
59207;SDS011;44977;53.132;6.408;2024-01-25T11:39:32;36.15;;;10.95;;
59207;SDS011;44977;53.132;6.408;2024-01-25T11:44:33;36.42;;;10.13;;
59207;SDS011;44977;53.132;6.408;2024-01-25T11:49:34;36.38;;;10.77;;
59207;SDS011;44977;53.132;6.408;2024-01-25T11:54:35;36.83;;;11.13;;
59207;SDS011;44977;53.132;6.408;2024-01-25T11:59:35;30.65;;;9.52;;
59207;SDS011;44977;53.132;6.408;2024-01-25T12:04:36;34.63;;;9.65;;
59207;SDS011;44977;53.132;6.408;2024-01-25T12:09:37;35.58;;;9.68;;
59207;SDS011;44977;53.132;6.408;2024-01-25T12:14:40;32.53;;;9.07;;
59207;SDS011;44977;53.132;6.408;2024-01-25T12:19:40;31.75;;;8.98;;
59207;SDS011;44977;53.132;6.408;2024-01-25T12:24:41;28.20;;;8.35;;
59207;SDS011;44977;53.132;6.408;2024-01-25T12:29:43;33.97;;;9.85;;
59207;SDS011;44977;53.132;6.408;2024-01-25T12:34:57;31.17;;;8.55;;
59207;SDS011;44977;53.132;6.408;2024-01-25T12:40:00;34.30;;;9.67;;
59207;SDS011;44977;53.132;6.408;2024-01-25T12:45:02;37.78;;;9.75;;
59207;SDS011;44977;53.132;6.408;2024-01-25T12:50:03;34.15;;;10.23;;
59207;SDS011;44977;53.132;6.408;2024-01-25T12:55:04;32.58;;;9.15;;
59207;SDS011;44977;53.132;6.408;2024-01-25T13:00:06;31.48;;;9.57;;
59207;SDS011;44977;53.132;6.408;2024-01-25T13:05:07;33.03;;;10.27;;
59207;SDS011;44977;53.132;6.408;2024-01-25T13:10:08;35.13;;;11.15;;
59207;SDS011;44977;53.132;6.408;2024-01-25T13:15:11;34.97;;;10.75;;
59207;SDS011;44977;53.132;6.408;2024-01-25T13:20:12;38.90;;;10.73;;
59207;SDS011;44977;53.132;6.408;2024-01-25T13:25:12;33.83;;;9.73;;
59207;SDS011;44977;53.132;6.408;2024-01-25T13:30:15;34.28;;;10.07;;
59207;SDS011;44977;53.132;6.408;2024-01-25T13:35:15;29.77;;;9.48;;
59207;SDS011;44977;53.132;6.408;2024-01-25T13:40:16;37.08;;;10.10;;
59207;SDS011;44977;53.132;6.408;2024-01-25T13:45:17;28.90;;;9.27;;
59207;SDS011;44977;53.132;6.408;2024-01-25T13:50:17;34.70;;;11.32;;
59207;SDS011;44977;53.132;6.408;2024-01-25T13:55:18;31.63;;;10.70;;
59207;SDS011;44977;53.132;6.408;2024-01-25T14:00:19;31.25;;;10.93;;
59207;SDS011;44977;53.132;6.408;2024-01-25T14:05:20;32.08;;;10.38;;
59207;SDS011;44977;53.132;6.408;2024-01-25T14:10:21;34.08;;;10.10;;
59207;SDS011;44977;53.132;6.408;2024-01-25T14:15:22;31.65;;;10.40;;
59207;SDS011;44977;53.132;6.408;2024-01-25T14:20:22;33.85;;;10.25;;
59207;SDS011;44977;53.132;6.408;2024-01-25T14:25:23;25.50;;;8.05;;
59207;SDS011;44977;53.132;6.408;2024-01-25T14:30:24;33.83;;;9.43;;
59207;SDS011;44977;53.132;6.408;2024-01-25T14:35:25;30.05;;;9.63;;
59207;SDS011;44977;53.132;6.408;2024-01-25T14:40:28;34.88;;;9.07;;
59207;SDS011;44977;53.132;6.408;2024-01-25T14:45:28;30.00;;;9.40;;
59207;SDS011;44977;53.132;6.408;2024-01-25T14:50:30;29.35;;;9.88;;
59207;SDS011;44977;53.132;6.408;2024-01-25T14:55:32;38.72;;;10.90;;
59207;SDS011;44977;53.132;6.408;2024-01-25T15:00:33;32.67;;;9.48;;
59207;SDS011;44977;53.132;6.408;2024-01-25T15:05:34;26.67;;;8.55;;
59207;SDS011;44977;53.132;6.408;2024-01-25T15:10:35;29.67;;;9.43;;
59207;SDS011;44977;53.132;6.408;2024-01-25T15:15:36;29.77;;;8.93;;
59207;SDS011;44977;53.132;6.408;2024-01-25T15:20:37;31.70;;;8.30;;
59207;SDS011;44977;53.132;6.408;2024-01-25T15:25:37;28.05;;;7.53;;
59207;SDS011;44977;53.132;6.408;2024-01-25T15:30:38;34.67;;;9.00;;
59207;SDS011;44977;53.132;6.408;2024-01-25T15:35:39;33.17;;;8.38;;
59207;SDS011;44977;53.132;6.408;2024-01-25T15:40:39;28.48;;;7.75;;
59207;SDS011;44977;53.132;6.408;2024-01-25T15:45:40;27.65;;;8.15;;
59207;SDS011;44977;53.132;6.408;2024-01-25T15:50:41;30.85;;;8.50;;
59207;SDS011;44977;53.132;6.408;2024-01-25T15:55:42;28.20;;;8.20;;
59207;SDS011;44977;53.132;6.408;2024-01-25T16:00:43;25.08;;;7.88;;
59207;SDS011;44977;53.132;6.408;2024-01-25T16:05:43;26.17;;;7.75;;
59207;SDS011;44977;53.132;6.408;2024-01-25T16:10:44;27.67;;;7.50;;
59207;SDS011;44977;53.132;6.408;2024-01-25T16:15:45;28.73;;;7.75;;
59207;SDS011;44977;53.132;6.408;2024-01-25T16:20:45;25.42;;;8.07;;
59207;SDS011;44977;53.132;6.408;2024-01-25T16:25:47;26.73;;;7.05;;
59207;SDS011;44977;53.132;6.408;2024-01-25T16:30:47;30.33;;;8.07;;
59207;SDS011;44977;53.132;6.408;2024-01-25T16:35:48;28.77;;;7.80;;
59207;SDS011;44977;53.132;6.408;2024-01-25T16:40:49;27.85;;;8.20;;
59207;SDS011;44977;53.132;6.408;2024-01-25T16:45:49;25.58;;;8.40;;
59207;SDS011;44977;53.132;6.408;2024-01-25T16:50:50;28.38;;;7.88;;
59207;SDS011;44977;53.132;6.408;2024-01-25T16:55:51;27.30;;;7.68;;
59207;SDS011;44977;53.132;6.408;2024-01-25T17:00:54;26.83;;;7.22;;
59207;SDS011;44977;53.132;6.408;2024-01-25T17:05:55;30.00;;;7.63;;
59207;SDS011;44977;53.132;6.408;2024-01-25T17:10:56;29.48;;;8.43;;
59207;SDS011;44977;53.132;6.408;2024-01-25T17:15:56;27.92;;;8.55;;
59207;SDS011;44977;53.132;6.408;2024-01-25T17:20:57;28.02;;;8.40;;
59207;SDS011;44977;53.132;6.408;2024-01-25T17:25:58;23.33;;;7.70;;
59207;SDS011;44977;53.132;6.408;2024-01-25T17:30:58;31.80;;;9.05;;
59207;SDS011;44977;53.132;6.408;2024-01-25T17:36:01;27.10;;;8.35;;
59207;SDS011;44977;53.132;6.408;2024-01-25T17:41:04;24.60;;;7.97;;
59207;SDS011;44977;53.132;6.408;2024-01-25T17:46:08;29.83;;;8.38;;
59207;SDS011;44977;53.132;6.408;2024-01-25T17:51:09;29.15;;;8.02;;
59207;SDS011;44977;53.132;6.408;2024-01-25T17:56:09;30.27;;;7.93;;
59207;SDS011;44977;53.132;6.408;2024-01-25T18:01:10;28.80;;;7.40;;
59207;SDS011;44977;53.132;6.408;2024-01-25T18:06:11;33.47;;;9.23;;
59207;SDS011;44977;53.132;6.408;2024-01-25T18:11:11;30.13;;;8.80;;
59207;SDS011;44977;53.132;6.408;2024-01-25T18:16:13;33.95;;;9.73;;
59207;SDS011;44977;53.132;6.408;2024-01-25T18:21:14;34.83;;;9.32;;
59207;SDS011;44977;53.132;6.408;2024-01-25T18:26:15;34.42;;;9.50;;
59207;SDS011;44977;53.132;6.408;2024-01-25T18:31:17;29.05;;;9.82;;
59207;SDS011;44977;53.132;6.408;2024-01-25T18:36:19;30.05;;;9.95;;
59207;SDS011;44977;53.132;6.408;2024-01-25T18:41:19;30.50;;;10.25;;
59207;SDS011;44977;53.132;6.408;2024-01-25T18:46:20;34.55;;;10.57;;
59207;SDS011;44977;53.132;6.408;2024-01-25T18:51:21;35.28;;;12.32;;
59207;SDS011;44977;53.132;6.408;2024-01-25T18:56:21;35.05;;;12.27;;
59207;SDS011;44977;53.132;6.408;2024-01-25T19:01:22;37.72;;;12.77;;
59207;SDS011;44977;53.132;6.408;2024-01-25T19:06:25;36.75;;;13.73;;
59207;SDS011;44977;53.132;6.408;2024-01-25T19:11:38;36.53;;;14.98;;
59207;SDS011;44977;53.132;6.408;2024-01-25T19:16:38;40.85;;;15.82;;
59207;SDS011;44977;53.132;6.408;2024-01-25T19:21:39;45.10;;;17.17;;
59207;SDS011;44977;53.132;6.408;2024-01-25T19:26:40;44.60;;;18.35;;
59207;SDS011;44977;53.132;6.408;2024-01-25T19:31:40;43.65;;;20.10;;
59207;SDS011;44977;53.132;6.408;2024-01-25T19:36:41;45.40;;;22.55;;
59207;SDS011;44977;53.132;6.408;2024-01-25T19:41:43;50.60;;;24.75;;
59207;SDS011;44977;53.132;6.408;2024-01-25T19:46:44;52.08;;;24.75;;
59207;SDS011;44977;53.132;6.408;2024-01-25T19:51:44;49.92;;;26.85;;
59207;SDS011;44977;53.132;6.408;2024-01-25T19:56:45;50.15;;;27.35;;
59207;SDS011;44977;53.132;6.408;2024-01-25T20:01:48;52.97;;;27.77;;
59207;SDS011;44977;53.132;6.408;2024-01-25T20:06:50;61.17;;;30.08;;
59207;SDS011;44977;53.132;6.408;2024-01-25T20:11:51;56.42;;;31.65;;
59207;SDS011;44977;53.132;6.408;2024-01-25T20:16:52;60.95;;;31.60;;
59207;SDS011;44977;53.132;6.408;2024-01-25T20:21:52;63.22;;;33.63;;
59207;SDS011;44977;53.132;6.408;2024-01-25T20:26:53;59.95;;;32.50;;
59207;SDS011;44977;53.132;6.408;2024-01-25T20:31:54;66.03;;;33.35;;
59207;SDS011;44977;53.132;6.408;2024-01-25T20:36:55;57.78;;;32.10;;
59207;SDS011;44977;53.132;6.408;2024-01-25T20:41:55;61.17;;;32.58;;
59207;SDS011;44977;53.132;6.408;2024-01-25T20:46:56;63.63;;;34.20;;
59207;SDS011;44977;53.132;6.408;2024-01-25T20:51:57;65.00;;;35.10;;
59207;SDS011;44977;53.132;6.408;2024-01-25T20:56:58;57.97;;;33.80;;
59207;SDS011;44977;53.132;6.408;2024-01-25T21:01:59;60.55;;;34.85;;
59207;SDS011;44977;53.132;6.408;2024-01-25T21:07:00;60.33;;;32.92;;
59207;SDS011;44977;53.132;6.408;2024-01-25T21:12:01;54.47;;;32.38;;
59207;SDS011;44977;53.132;6.408;2024-01-25T21:17:02;58.92;;;31.92;;
59207;SDS011;44977;53.132;6.408;2024-01-25T21:22:03;52.00;;;31.35;;
59207;SDS011;44977;53.132;6.408;2024-01-25T21:27:03;51.10;;;30.85;;
59207;SDS011;44977;53.132;6.408;2024-01-25T21:32:04;46.95;;;27.65;;
59207;SDS011;44977;53.132;6.408;2024-01-25T21:37:05;43.55;;;26.48;;
59207;SDS011;44977;53.132;6.408;2024-01-25T21:42:06;46.60;;;27.15;;
59207;SDS011;44977;53.132;6.408;2024-01-25T21:47:07;43.80;;;27.50;;
59207;SDS011;44977;53.132;6.408;2024-01-25T21:52:07;42.08;;;26.50;;
59207;SDS011;44977;53.132;6.408;2024-01-25T21:57:08;42.60;;;27.73;;
59207;SDS011;44977;53.132;6.408;2024-01-25T22:02:09;46.65;;;29.25;;
59207;SDS011;44977;53.132;6.408;2024-01-25T22:07:10;53.67;;;32.17;;
59207;SDS011;44977;53.132;6.408;2024-01-25T22:12:10;47.05;;;29.02;;
59207;SDS011;44977;53.132;6.408;2024-01-25T22:17:12;39.60;;;26.25;;
59207;SDS011;44977;53.132;6.408;2024-01-25T22:22:13;44.17;;;28.25;;
59207;SDS011;44977;53.132;6.408;2024-01-25T22:27:13;44.65;;;28.35;;
59207;SDS011;44977;53.132;6.408;2024-01-25T22:32:14;47.22;;;30.20;;
59207;SDS011;44977;53.132;6.408;2024-01-25T22:37:15;47.25;;;29.23;;
59207;SDS011;44977;53.132;6.408;2024-01-25T22:42:15;46.95;;;28.98;;
59207;SDS011;44977;53.132;6.408;2024-01-25T22:47:16;49.58;;;29.85;;
59207;SDS011;44977;53.132;6.408;2024-01-25T22:52:17;48.53;;;29.17;;
59207;SDS011;44977;53.132;6.408;2024-01-25T22:57:17;48.03;;;28.08;;
59207;SDS011;44977;53.132;6.408;2024-01-25T23:02:18;46.30;;;28.83;;
59207;SDS011;44977;53.132;6.408;2024-01-25T23:07:19;52.03;;;29.38;;
59207;SDS011;44977;53.132;6.408;2024-01-25T23:12:19;53.13;;;30.30;;
59207;SDS011;44977;53.132;6.408;2024-01-25T23:17:20;46.05;;;28.15;;
59207;SDS011;44977;53.132;6.408;2024-01-25T23:22:21;50.20;;;30.00;;
59207;SDS011;44977;53.132;6.408;2024-01-25T23:27:22;49.80;;;28.70;;
59207;SDS011;44977;53.132;6.408;2024-01-25T23:32:22;50.10;;;29.40;;
59207;SDS011;44977;53.132;6.408;2024-01-25T23:37:23;59.03;;;32.88;;
59207;SDS011;44977;53.132;6.408;2024-01-25T23:42:24;51.15;;;31.65;;
59207;SDS011;44977;53.132;6.408;2024-01-25T23:47:24;55.53;;;31.20;;
59207;SDS011;44977;53.132;6.408;2024-01-25T23:52:25;59.47;;;33.88;;
59207;SDS011;44977;53.132;6.408;2024-01-25T23:57:26;59.38;;;33.33;;
